createdAt,value
2023-01-18T00:02:00.794Z,3.50
2023-01-18T00:07:02.622Z,3.50
2023-01-18T00:12:04.552Z,3.50
2023-01-18T00:17:06.348Z,3.50
2023-01-18T00:22:08.206Z,3.50
2023-01-18T00:27:10.789Z,3.50
2023-01-18T00:32:14.300Z,3.50
2023-01-18T00:37:16.168Z,3.50
2023-01-18T00:42:36.606Z,3.40
2023-01-18T00:47:38.480Z,3.50
2023-01-18T00:52:40.454Z,3.40
2023-01-18T00:57:42.844Z,3.40
2023-01-18T01:02:44.896Z,3.40
2023-01-18T01:07:49.216Z,3.40
2023-01-18T01:13:09.802Z,3.40
2023-01-18T01:18:31.860Z,3.40
2023-01-18T01:23:52.881Z,3.40
2023-01-18T01:28:54.783Z,3.40
2023-01-18T01:33:56.604Z,3.40
2023-01-18T01:38:58.468Z,3.30
2023-01-18T01:44:04.738Z,3.30
2023-01-18T01:49:16.257Z,3.20
2023-01-18T01:54:23.724Z,3.20
2023-01-18T01:59:25.654Z,3.10
2023-01-18T02:04:28.120Z,3.10
2023-01-18T02:09:29.974Z,3.10
2023-01-18T02:14:31.956Z,3.10
2023-01-18T02:19:54.492Z,3.00
2023-01-18T02:25:50.648Z,3.00
2023-01-18T02:31:19.764Z,2.90
2023-01-18T02:36:29.548Z,2.90
2023-01-18T02:41:55.080Z,2.90
2023-01-18T02:46:57.065Z,2.90
2023-01-18T02:52:07.022Z,2.90
2023-01-18T02:57:12.643Z,2.80
2023-01-18T03:02:21.161Z,2.80
2023-01-18T03:07:29.139Z,2.80
2023-01-18T03:12:47.153Z,2.80
2023-01-18T03:17:59.518Z,2.70
2023-01-18T03:23:25.036Z,2.70
2023-01-18T03:28:50.640Z,2.70
2023-01-18T03:33:55.795Z,2.60
2023-01-18T03:39:01.585Z,2.70
2023-01-18T03:44:27.576Z,2.60
2023-01-18T03:49:29.550Z,2.60
2023-01-18T03:54:46.897Z,2.50
2023-01-18T03:59:49.013Z,2.40
2023-01-18T04:04:57.401Z,2.40
2023-01-18T04:09:59.896Z,2.40
2023-01-18T04:15:02.612Z,2.30
2023-01-18T04:20:04.962Z,2.30
2023-01-18T04:25:07.076Z,2.30
2023-01-18T04:30:09.809Z,2.40
2023-01-18T04:35:12.530Z,2.40
2023-01-18T04:40:14.436Z,2.40
2023-01-18T04:45:18.191Z,2.50
2023-01-18T04:50:20.022Z,2.50
2023-01-18T04:55:22.849Z,2.50
2023-01-18T05:00:24.879Z,2.50
2023-01-18T05:05:26.771Z,2.50
2023-01-18T05:10:28.869Z,2.60
2023-01-18T05:15:30.784Z,2.60
2023-01-18T05:20:32.776Z,2.60
2023-01-18T05:25:34.601Z,2.60
2023-01-18T05:30:42.001Z,2.50
2023-01-18T05:35:54.601Z,2.50
2023-01-18T05:40:57.429Z,2.50
2023-01-18T05:45:59.499Z,2.50
2023-01-18T05:51:08.662Z,2.60
2023-01-18T05:56:11.475Z,2.70
2023-01-18T06:01:13.732Z,2.70
2023-01-18T06:06:16.566Z,2.80
2023-01-18T06:11:18.581Z,2.70
2023-01-18T06:16:20.467Z,2.70
2023-01-18T06:21:22.386Z,2.70
2023-01-18T06:26:24.308Z,2.70
2023-01-18T06:31:26.726Z,2.70
2023-01-18T06:36:29.831Z,2.70
2023-01-18T06:41:31.894Z,2.70
2023-01-18T06:46:33.781Z,2.60
2023-01-18T06:51:35.612Z,2.70
2023-01-18T06:56:37.422Z,2.70
2023-01-18T07:01:39.328Z,2.70
2023-01-18T07:06:41.381Z,2.80
2023-01-18T07:11:44.032Z,2.80
2023-01-18T07:16:45.893Z,2.80
2023-01-18T07:21:48.278Z,2.90
2023-01-18T07:26:50.178Z,2.90
2023-01-18T07:31:52.096Z,2.90
2023-01-18T07:36:54.393Z,2.90
2023-01-18T07:41:56.496Z,3.00
2023-01-18T07:46:58.574Z,3.00
2023-01-18T07:52:00.444Z,3.10
2023-01-18T07:57:02.281Z,3.20
2023-01-18T08:02:04.356Z,3.20
2023-01-18T08:07:06.286Z,3.30
2023-01-18T08:12:11.418Z,3.30
2023-01-18T08:17:13.272Z,3.40
2023-01-18T08:22:15.082Z,3.40
2023-01-18T08:27:16.923Z,3.50
2023-01-18T08:32:18.823Z,3.90
2023-01-18T08:37:20.701Z,4.40
2023-01-18T08:42:22.563Z,4.70
2023-01-18T08:47:24.374Z,5.10
2023-01-18T08:52:27.092Z,5.60
2023-01-18T08:57:28.913Z,6.20
2023-01-18T09:02:30.806Z,6.20
2023-01-18T09:07:32.687Z,6.30
2023-01-18T09:12:35.264Z,6.30
2023-01-18T09:17:37.087Z,6.70
2023-01-18T09:22:39.734Z,7.30
2023-01-18T09:27:42.394Z,7.80
2023-01-18T09:32:44.358Z,8.20
2023-01-18T09:37:46.269Z,8.50
2023-01-18T09:42:51.339Z,8.70
2023-01-18T09:47:59.242Z,8.90
2023-01-18T09:53:07.256Z,9.00
2023-01-18T09:58:34.903Z,8.80
2023-01-18T10:03:46.857Z,8.90
2023-01-18T10:09:04.360Z,9.10
2023-01-18T10:14:44.415Z,9.20
2023-01-18T10:19:46.379Z,9.10
2023-01-18T10:24:57.580Z,8.70
2023-01-18T10:30:25.746Z,8.40
2023-01-18T10:35:34.306Z,8.00
2023-01-18T10:40:36.652Z,7.60
2023-01-18T10:45:38.513Z,7.40
2023-01-18T10:50:42.330Z,7.30
2023-01-18T10:55:52.559Z,7.30
2023-01-18T11:00:55.372Z,7.30
2023-01-18T11:06:06.518Z,7.30
2023-01-18T11:11:46.701Z,7.20
2023-01-18T11:17:11.568Z,7.30
2023-01-18T11:22:16.669Z,7.40
2023-01-18T11:27:23.887Z,7.30
2023-01-18T11:32:28.246Z,7.10
2023-01-18T11:37:36.039Z,6.80
2023-01-18T11:42:38.629Z,6.70
2023-01-18T11:48:10.218Z,6.60
2023-01-18T11:53:31.433Z,6.70
2023-01-18T11:58:35.537Z,6.90
2023-01-18T12:03:46.341Z,7.00
2023-01-18T12:09:19.086Z,7.00
2023-01-18T12:14:37.152Z,7.10
2023-01-18T12:19:53.621Z,7.20
2023-01-18T12:25:25.401Z,7.30
2023-01-18T12:30:37.022Z,7.40
2023-01-18T12:35:48.265Z,7.50
2023-01-18T12:41:30.219Z,7.40
2023-01-18T12:46:41.938Z,7.40
2023-01-18T12:51:45.765Z,7.40
2023-01-18T12:56:50.608Z,7.40
2023-01-18T13:02:00.504Z,7.40
2023-01-18T13:07:07.225Z,7.60
2023-01-18T13:12:09.660Z,7.70
2023-01-18T13:17:27.911Z,7.80
2023-01-18T13:22:35.780Z,7.90
2023-01-18T13:27:38.838Z,7.90
2023-01-18T13:32:43.680Z,7.90
2023-01-18T13:37:49.261Z,7.80
2023-01-18T13:42:51.299Z,7.70
2023-01-18T13:48:05.551Z,7.60
2023-01-18T13:53:13.690Z,7.50
2023-01-18T13:58:33.243Z,7.40
2023-01-18T14:03:38.783Z,7.30
2023-01-18T14:08:49.170Z,7.20
2023-01-18T14:13:50.940Z,7.10
2023-01-18T14:19:03.889Z,7.00
2023-01-18T14:24:23.306Z,6.90
2023-01-18T14:29:34.821Z,6.80
2023-01-18T14:34:41.765Z,6.60
2023-01-18T14:39:43.707Z,6.60
2023-01-18T14:44:57.777Z,6.50
2023-01-18T14:50:04.503Z,6.40
2023-01-18T14:55:08.992Z,6.30
2023-01-18T15:00:18.025Z,6.20
2023-01-18T15:05:20.914Z,6.10
2023-01-18T15:10:23.726Z,6.00
2023-01-18T15:15:31.390Z,5.90
2023-01-18T15:20:33.927Z,5.80
2023-01-18T15:25:36.042Z,5.80
2023-01-18T15:30:37.864Z,5.70
2023-01-18T15:35:41.675Z,5.70
2023-01-18T15:41:10.633Z,5.60
2023-01-18T15:46:14.832Z,5.60
2023-01-18T15:51:16.810Z,5.50
2023-01-18T15:56:24.340Z,5.40
2023-01-18T16:01:31.702Z,5.40
2023-01-18T16:06:37.131Z,5.30
2023-01-18T16:11:54.335Z,5.20
2023-01-18T16:17:20.468Z,5.10
2023-01-18T16:22:26.291Z,5.00
2023-01-18T16:27:31.073Z,4.90
2023-01-18T16:32:35.434Z,4.80
2023-01-18T16:37:38.337Z,4.70
2023-01-18T16:43:01.561Z,4.50
2023-01-18T16:48:04.810Z,4.40
2023-01-18T16:53:06.700Z,4.40
2023-01-18T16:58:11.445Z,4.40
2023-01-18T17:03:13.321Z,4.30
2023-01-18T17:08:15.966Z,4.30
2023-01-18T17:13:18.125Z,4.20
2023-01-18T17:18:25.465Z,4.10
2023-01-18T17:23:27.365Z,4.00
2023-01-18T17:28:29.429Z,3.90
2023-01-18T17:33:32.622Z,3.70
2023-01-18T17:38:37.195Z,3.60
2023-01-18T17:43:39.380Z,3.50
2023-01-18T17:48:41.513Z,3.50
2023-01-18T17:53:43.522Z,3.50
2023-01-18T17:58:47.184Z,3.50
2023-01-18T18:03:50.690Z,3.50
2023-01-18T18:08:52.570Z,3.50
2023-01-18T18:13:56.276Z,3.40
2023-01-18T18:18:59.996Z,3.40
2023-01-18T18:24:02.127Z,3.30
2023-01-18T18:29:04.617Z,3.30
2023-01-18T18:34:06.624Z,3.30
2023-01-18T18:39:09.017Z,3.30
2023-01-18T18:44:10.841Z,3.30
2023-01-18T18:49:12.805Z,3.20
2023-01-18T18:54:14.736Z,3.10
2023-01-18T18:59:16.875Z,3.00
2023-01-18T19:04:21.338Z,3.00
2023-01-18T19:09:23.221Z,2.90
2023-01-18T19:14:26.580Z,2.90
2023-01-18T19:19:28.513Z,2.90
2023-01-18T19:24:34.919Z,2.80
2023-01-18T19:29:38.226Z,2.70
2023-01-18T19:34:48.284Z,2.70
2023-01-18T19:39:50.115Z,2.70
2023-01-18T19:44:53.856Z,2.70
2023-01-18T19:49:57.380Z,2.70
2023-01-18T19:54:59.470Z,2.50
2023-01-18T20:00:04.021Z,2.40
2023-01-18T20:05:06.297Z,2.30
2023-01-18T20:10:08.721Z,2.20
2023-01-18T20:15:10.982Z,2.20
2023-01-18T20:20:20.896Z,2.10
2023-01-18T20:25:31.667Z,2.00
2023-01-18T20:30:33.792Z,2.00
2023-01-18T20:35:35.979Z,1.90
2023-01-18T20:40:38.225Z,1.90
2023-01-18T20:45:40.069Z,1.90
2023-01-18T20:50:42.496Z,2.00
2023-01-18T20:55:44.314Z,2.00
2023-01-18T21:00:46.737Z,2.00
2023-01-18T21:05:48.675Z,2.00
2023-01-18T21:10:51.445Z,2.00
2023-01-18T21:15:58.973Z,2.00
2023-01-18T21:21:00.846Z,2.00
2023-01-18T21:26:02.722Z,2.00
2023-01-18T21:31:05.229Z,1.90
2023-01-18T21:36:09.979Z,2.00
2023-01-18T21:41:30.912Z,2.00
2023-01-18T21:46:32.787Z,1.90
2023-01-18T21:51:53.361Z,1.90
2023-01-18T21:56:55.400Z,1.90
2023-01-18T22:01:57.386Z,2.00
2023-01-18T22:06:59.836Z,2.00
2023-01-18T22:12:01.805Z,2.00
2023-01-18T22:17:03.759Z,2.10
2023-01-18T22:22:05.734Z,2.10
2023-01-18T22:27:12.852Z,2.10
2023-01-18T22:32:23.910Z,2.00
2023-01-18T22:37:27.690Z,2.00
2023-01-18T22:42:31.529Z,2.20
2023-01-18T22:47:33.372Z,2.40
2023-01-18T22:52:35.513Z,2.60
2023-01-18T22:57:37.441Z,2.80
2023-01-18T23:02:39.261Z,2.90
2023-01-18T23:07:41.141Z,3.00
2023-01-18T23:12:42.957Z,3.00
2023-01-18T23:17:45.083Z,3.00
2023-01-18T23:22:46.976Z,3.00
2023-01-18T23:27:48.843Z,2.90
2023-01-18T23:32:50.839Z,3.00
2023-01-18T23:37:52.671Z,2.90
2023-01-18T23:43:13.214Z,2.90
2023-01-18T23:48:37.712Z,2.90
2023-01-18T23:53:58.898Z,2.90
2023-01-18T23:59:00.737Z,2.90
